Time;durP1;ratioP1;P1;durP2;ratioP2;P2;SDS_P1;SDS_P2;PMS_P1;PMS_P2;Temp;Humidity;BMP_temperature;BMP_pressure;BME280_temperature;BME280_humidity;BME280_pressure;Samples;Min_cycle;Max_cycle;Signal;HPM_P1;HPM_P2
2023/12/04 00:01:15;;;;;;;35.88;23.50;;;;;;;;;;5055116;28;20049;-76
2023/12/04 00:03:41;;;;;;;37.25;23.13;;;;;;;;;;5037399;28;20095;-76
2023/12/04 00:06:08;;;;;;;36.50;24.25;;;;;;;;;;5054357;28;20041;-76
2023/12/04 00:08:34;;;;;;;31.48;21.40;;;;;;;;;;5037763;28;20484;-76
2023/12/04 00:11:00;;;;;;;35.67;21.85;;;;;;;;;;5053965;28;20041;-76
2023/12/04 00:13:26;;;;;;;34.70;22.85;;;;;;;;;;5054741;28;20049;-76
2023/12/04 00:15:52;;;;;;;34.67;23.02;;;;;;;;;;5054159;28;20052;-76
2023/12/04 00:18:18;;;;;;;34.45;22.52;;;;;;;;;;5053825;28;20052;-76
2023/12/04 00:20:44;;;;;;;35.63;23.52;;;;;;;;;;5037218;28;20140;-76
2023/12/04 00:23:10;;;;;;;36.78;24.08;;;;;;;;;;5053940;28;20059;-76
2023/12/04 00:25:36;;;;;;;32.95;21.77;;;;;;;;;;5052770;28;20041;-76
2023/12/04 00:28:02;;;;;;;33.17;21.60;;;;;;;;;;5036753;28;20134;-76
2023/12/04 00:30:28;;;;;;;35.05;21.83;;;;;;;;;;5053594;28;20419;-76
2023/12/04 00:32:54;;;;;;;28.48;19.85;;;;;;;;;;5020906;28;20547;-76
2023/12/04 00:35:20;;;;;;;31.10;20.13;;;;;;;;;;5054484;28;20053;-76
2023/12/04 00:37:46;;;;;;;28.30;19.00;;;;;;;;;;5054250;28;20376;-76
2023/12/04 00:40:12;;;;;;;29.95;17.98;;;;;;;;;;5053052;28;20047;-76
2023/12/04 00:42:39;;;;;;;30.30;18.88;;;;;;;;;;5037056;28;20139;-76
2023/12/04 00:45:05;;;;;;;28.33;18.77;;;;;;;;;;5054768;28;20041;-76
2023/12/04 00:47:31;;;;;;;28.70;19.10;;;;;;;;;;5053091;28;20131;-76
2023/12/04 00:49:57;;;;;;;31.58;20.50;;;;;;;;;;5053181;28;20397;-76
2023/12/04 00:52:23;;;;;;;29.17;19.13;;;;;;;;;;5054834;28;20056;-76
2023/12/04 00:54:49;;;;;;;28.10;18.73;;;;;;;;;;5054672;28;20056;-76
2023/12/04 00:57:15;;;;;;;27.80;19.15;;;;;;;;;;5053356;28;20061;-76
2023/12/04 00:59:41;;;;;;;29.13;19.58;;;;;;;;;;5054379;28;20543;-75
2023/12/04 01:02:08;;;;;;;31.40;19.10;;;;;;;;;;5053054;28;20076;-76
2023/12/04 01:04:34;;;;;;;30.92;19.27;;;;;;;;;;5053138;28;20049;-76
2023/12/04 01:07:00;;;;;;;26.88;18.55;;;;;;;;;;5053783;28;20134;-75
2023/12/04 01:09:26;;;;;;;28.13;18.10;;;;;;;;;;5053051;28;20527;-76
2023/12/04 01:11:53;;;;;;;29.50;19.23;;;;;;;;;;5052939;28;20052;-75
2023/12/04 01:14:19;;;;;;;25.52;17.98;;;;;;;;;;5054707;28;20041;-76
2023/12/04 01:16:45;;;;;;;24.27;16.15;;;;;;;;;;5054408;28;20057;-76
2023/12/04 01:19:11;;;;;;;29.63;19.20;;;;;;;;;;5052898;28;20049;-76
2023/12/04 01:21:37;;;;;;;29.75;19.10;;;;;;;;;;5052685;28;20048;-76
2023/12/04 01:24:03;;;;;;;27.25;19.08;;;;;;;;;;5053637;28;20142;-76
2023/12/04 01:26:29;;;;;;;27.58;17.63;;;;;;;;;;5052737;28;20049;-76
2023/12/04 01:28:55;;;;;;;27.70;18.85;;;;;;;;;;5036573;28;20060;-76
2023/12/04 01:31:21;;;;;;;29.55;20.45;;;;;;;;;;5036079;28;20049;-76
2023/12/04 01:33:48;;;;;;;28.33;18.63;;;;;;;;;;5052922;28;20500;-76
2023/12/04 01:36:14;;;;;;;30.95;19.02;;;;;;;;;;5052211;28;20057;-76
2023/12/04 01:38:40;;;;;;;27.30;19.25;;;;;;;;;;5054152;28;20084;-76
2023/12/04 01:41:06;;;;;;;28.08;18.15;;;;;;;;;;5052859;28;20055;-76
2023/12/04 01:43:32;;;;;;;26.45;17.35;;;;;;;;;;5019682;28;20053;-76
2023/12/04 01:46:00;;;;;;;27.60;19.52;;;;;;;;;;5035677;28;20091;-76
2023/12/04 01:48:26;;;;;;;28.63;18.60;;;;;;;;;;5054061;28;20354;-76
2023/12/04 01:50:52;;;;;;;28.65;19.60;;;;;;;;;;5051832;28;20057;-76
2023/12/04 01:53:19;;;;;;;27.90;18.27;;;;;;;;;;5053480;28;20393;-76
2023/12/04 01:55:46;;;;;;;28.65;19.55;;;;;;;;;;5035714;28;20044;-76
2023/12/04 01:58:12;;;;;;;27.52;18.98;;;;;;;;;;5053201;28;20378;-75
2023/12/04 02:00:38;;;;;;;27.20;18.88;;;;;;;;;;5035461;28;20477;-76
2023/12/04 02:03:05;;;;;;;27.50;19.08;;;;;;;;;;5053139;28;20045;-76
2023/12/04 02:05:31;;;;;;;31.05;18.42;;;;;;;;;;5035757;28;20090;-76
2023/12/04 02:07:58;;;;;;;26.00;18.40;;;;;;;;;;5053117;28;20499;-75
2023/12/04 02:10:24;;;;;;;28.13;19.15;;;;;;;;;;5053271;28;20055;-76
2023/12/04 02:12:51;;;;;;;29.33;19.75;;;;;;;;;;5053012;28;20512;-76
2023/12/04 02:15:17;;;;;;;29.83;19.38;;;;;;;;;;5052274;28;20048;-76
2023/12/04 02:17:46;;;;;;;29.38;18.75;;;;;;;;;;5053181;28;20390;-76
2023/12/04 02:20:15;;;;;;;27.02;18.38;;;;;;;;;;5051990;28;20056;-76
2023/12/04 02:22:42;;;;;;;27.95;18.23;;;;;;;;;;5035587;28;20060;-76
2023/12/04 02:25:09;;;;;;;28.75;18.98;;;;;;;;;;5051960;28;20044;-76
2023/12/04 02:27:41;;;;;;;29.10;19.23;;;;;;;;;;5052417;28;20045;-76
2023/12/04 02:30:08;;;;;;;27.92;18.52;;;;;;;;;;5053047;28;20045;-76
2023/12/04 02:32:36;;;;;;;26.45;18.38;;;;;;;;;;5052093;28;20048;-76
2023/12/04 02:35:06;;;;;;;28.85;19.05;;;;;;;;;;5035708;28;20175;-76
2023/12/04 02:37:32;;;;;;;27.40;16.95;;;;;;;;;;5053018;28;20500;-77
2023/12/04 02:39:59;;;;;;;29.10;19.35;;;;;;;;;;5052308;28;20053;-76
2023/12/04 02:42:25;;;;;;;26.35;17.77;;;;;;;;;;5053449;28;20049;-76
2023/12/04 02:44:51;;;;;;;26.90;18.50;;;;;;;;;;5052830;28;20548;-76
2023/12/04 02:47:18;;;;;;;26.70;17.45;;;;;;;;;;5052649;28;20045;-76
2023/12/04 02:49:44;;;;;;;27.65;18.52;;;;;;;;;;5057071;28;20060;-76
2023/12/04 02:52:10;;;;;;;25.75;18.23;;;;;;;;;;5038700;28;20049;-76
2023/12/04 02:54:36;;;;;;;27.80;18.05;;;;;;;;;;5055433;28;20542;-76
2023/12/04 02:57:02;;;;;;;26.27;18.92;;;;;;;;;;5038933;28;20053;-76
2023/12/04 02:59:28;;;;;;;27.80;17.45;;;;;;;;;;5038705;28;20049;-76
2023/12/04 03:01:55;;;;;;;26.15;17.63;;;;;;;;;;5056720;28;20045;-76
2023/12/04 03:04:21;;;;;;;29.83;19.20;;;;;;;;;;5038979;28;20045;-76
2023/12/04 03:06:47;;;;;;;27.38;18.13;;;;;;;;;;5056206;28;20099;-76
2023/12/04 03:09:13;;;;;;;27.30;17.30;;;;;;;;;;5038655;28;20056;-76
2023/12/04 03:11:42;;;;;;;27.25;16.48;;;;;;;;;;5055076;28;20044;-76
2023/12/04 03:14:09;;;;;;;26.25;17.52;;;;;;;;;;5056045;28;20037;-75
2023/12/04 03:16:35;;;;;;;29.15;18.40;;;;;;;;;;5055058;28;20084;-76
2023/12/04 03:19:01;;;;;;;29.17;17.35;;;;;;;;;;5038066;28;20049;-76
2023/12/04 03:21:28;;;;;;;26.90;17.13;;;;;;;;;;5054874;28;20112;-76
2023/12/04 03:23:54;;;;;;;27.33;17.13;;;;;;;;;;5054843;28;20082;-76
2023/12/04 03:26:20;;;;;;;28.20;18.38;;;;;;;;;;5054806;28;20056;-76
2023/12/04 03:28:46;;;;;;;27.20;17.63;;;;;;;;;;5055079;28;20358;-76
2023/12/04 03:31:13;;;;;;;24.48;16.95;;;;;;;;;;5038713;28;20048;-76
2023/12/04 03:33:39;;;;;;;27.05;17.95;;;;;;;;;;5055004;28;20041;-76
2023/12/04 03:36:05;;;;;;;29.77;18.20;;;;;;;;;;5038919;28;20057;-76
2023/12/04 03:38:31;;;;;;;24.80;16.80;;;;;;;;;;5056409;28;20343;-76
2023/12/04 03:40:57;;;;;;;26.40;17.60;;;;;;;;;;5055543;28;20049;-76
2023/12/04 03:43:23;;;;;;;24.95;16.63;;;;;;;;;;5055318;28;20084;-76
2023/12/04 03:45:49;;;;;;;25.25;16.45;;;;;;;;;;5054500;28;20362;-76
2023/12/04 03:48:15;;;;;;;26.17;17.15;;;;;;;;;;5055206;28;20132;-76
2023/12/04 03:50:41;;;;;;;26.70;17.95;;;;;;;;;;5054823;28;20053;-76
2023/12/04 03:53:07;;;;;;;23.42;15.82;;;;;;;;;;5054329;28;20057;-76
2023/12/04 03:55:34;;;;;;;26.15;17.40;;;;;;;;;;5054592;28;20060;-76
2023/12/04 03:58:00;;;;;;;23.88;16.23;;;;;;;;;;5055603;28;20052;-76
2023/12/04 04:00:26;;;;;;;25.48;16.98;;;;;;;;;;5053517;28;20048;-76
2023/12/04 04:02:52;;;;;;;23.77;15.77;;;;;;;;;;5053902;28;20045;-76
2023/12/04 04:05:18;;;;;;;22.55;15.55;;;;;;;;;;5038068;28;20041;-76
2023/12/04 04:07:44;;;;;;;22.95;15.88;;;;;;;;;;5054447;28;20052;-76
2023/12/04 04:10:10;;;;;;;25.58;16.60;;;;;;;;;;5054861;28;20381;-76
2023/12/04 04:12:36;;;;;;;24.42;16.23;;;;;;;;;;5054919;28;20041;-76
2023/12/04 04:15:02;;;;;;;23.65;14.95;;;;;;;;;;5053952;28;20057;-76
2023/12/04 04:17:29;;;;;;;22.00;15.88;;;;;;;;;;5054680;28;20087;-76
2023/12/04 04:19:55;;;;;;;22.65;15.88;;;;;;;;;;5038094;28;20056;-76
2023/12/04 04:22:22;;;;;;;24.08;15.40;;;;;;;;;;5053793;28;20052;-77
2023/12/04 04:24:48;;;;;;;22.40;16.10;;;;;;;;;;5054616;28;20041;-76
2023/12/04 04:27:15;;;;;;;23.48;16.50;;;;;;;;;;5053942;28;20041;-76
2023/12/04 04:29:41;;;;;;;24.02;16.50;;;;;;;;;;5054484;28;20045;-76
2023/12/04 04:32:07;;;;;;;24.58;16.30;;;;;;;;;;5053846;28;20401;-76
2023/12/04 04:34:33;;;;;;;25.73;17.15;;;;;;;;;;5053311;28;20396;-76
2023/12/04 04:36:59;;;;;;;26.63;17.17;;;;;;;;;;5053496;28;20053;-76
2023/12/04 04:39:25;;;;;;;24.33;17.23;;;;;;;;;;5053441;28;20516;-76
2023/12/04 04:41:51;;;;;;;26.85;17.48;;;;;;;;;;5054192;28;20102;-76
2023/12/04 04:44:17;;;;;;;24.77;16.70;;;;;;;;;;5037504;28;20041;-76
2023/12/04 04:46:43;;;;;;;26.48;15.80;;;;;;;;;;5053561;28;20051;-76
2023/12/04 04:49:09;;;;;;;25.20;16.90;;;;;;;;;;5054240;28;20135;-76
2023/12/04 04:51:35;;;;;;;27.73;17.95;;;;;;;;;;5054319;28;20067;-76
2023/12/04 04:54:02;;;;;;;23.92;16.40;;;;;;;;;;5053283;28;20492;-76
2023/12/04 04:56:28;;;;;;;21.85;13.60;;;;;;;;;;5052878;28;20131;-76
2023/12/04 04:58:54;;;;;;;23.92;15.68;;;;;;;;;;5037339;28;20057;-76
2023/12/04 05:01:20;;;;;;;22.85;15.50;;;;;;;;;;5052788;28;20056;-76
2023/12/04 05:03:47;;;;;;;24.02;15.63;;;;;;;;;;5054657;28;20059;-76
2023/12/04 05:06:13;;;;;;;24.13;15.40;;;;;;;;;;5052968;28;20102;-76
2023/12/04 05:08:39;;;;;;;25.98;16.73;;;;;;;;;;5052993;28;20095;-76
2023/12/04 05:11:05;;;;;;;25.63;16.20;;;;;;;;;;5053543;28;20051;-76
2023/12/04 05:13:31;;;;;;;22.13;15.32;;;;;;;;;;5036590;28;20048;-76
2023/12/04 05:15:57;;;;;;;21.50;13.80;;;;;;;;;;5036594;28;20044;-76
2023/12/04 05:18:23;;;;;;;26.65;15.25;;;;;;;;;;5052808;28;20057;-76
2023/12/04 05:20:49;;;;;;;22.67;15.20;;;;;;;;;;5052755;28;20052;-76
2023/12/04 05:23:16;;;;;;;24.88;16.35;;;;;;;;;;5052793;28;20045;-76
2023/12/04 05:25:42;;;;;;;20.85;14.02;;;;;;;;;;5052520;28;20049;-76
2023/12/04 05:28:08;;;;;;;22.02;14.73;;;;;;;;;;5035939;28;20045;-76
2023/12/04 05:30:35;;;;;;;23.25;15.73;;;;;;;;;;5053411;28;20393;-76
2023/12/04 05:33:01;;;;;;;26.23;15.93;;;;;;;;;;5035820;28;20048;-76
2023/12/04 05:35:28;;;;;;;19.73;12.32;;;;;;;;;;5052623;28;20453;-76
2023/12/04 05:37:54;;;;;;;22.15;14.13;;;;;;;;;;5053548;28;20048;-76
2023/12/04 05:40:20;;;;;;;27.73;16.75;;;;;;;;;;5053373;28;20146;-75
2023/12/04 05:42:46;;;;;;;24.15;15.43;;;;;;;;;;5052534;28;20064;-76
2023/12/04 05:45:12;;;;;;;24.45;15.15;;;;;;;;;;5053181;28;20049;-76
2023/12/04 05:47:38;;;;;;;24.42;15.45;;;;;;;;;;5053343;28;20049;-76
2023/12/04 05:50:05;;;;;;;22.85;14.88;;;;;;;;;;5053206;28;20041;-79
2023/12/04 05:52:31;;;;;;;22.75;15.88;;;;;;;;;;5053233;28;20059;-76
2023/12/04 05:54:57;;;;;;;21.42;14.75;;;;;;;;;;5053359;28;20041;-75
2023/12/04 05:57:23;;;;;;;23.45;15.30;;;;;;;;;;5053357;28;20048;-76
2023/12/04 05:59:49;;;;;;;22.33;14.88;;;;;;;;;;5052389;28;20492;-76
2023/12/04 06:02:15;;;;;;;23.05;15.48;;;;;;;;;;5052432;28;20133;-76
2023/12/04 06:04:41;;;;;;;20.48;14.38;;;;;;;;;;5052234;28;20037;-76
2023/12/04 06:07:07;;;;;;;21.10;13.15;;;;;;;;;;5053319;28;20049;-76
2023/12/04 06:09:36;;;;;;;19.42;13.43;;;;;;;;;;5035668;28;20397;-76
2023/12/04 06:12:07;;;;;;;21.80;13.45;;;;;;;;;;5052310;28;20052;-77
2023/12/04 06:14:34;;;;;;;20.45;14.18;;;;;;;;;;5052676;28;20052;-76
2023/12/04 06:17:00;;;;;;;20.20;14.48;;;;;;;;;;5052210;28;20041;-76
2023/12/04 06:19:26;;;;;;;20.85;14.48;;;;;;;;;;5053071;28;20044;-76
2023/12/04 06:21:52;;;;;;;24.33;15.10;;;;;;;;;;5052217;28;20056;-76
2023/12/04 06:24:19;;;;;;;21.60;15.45;;;;;;;;;;5055933;28;20045;-76
2023/12/04 06:26:48;;;;;;;20.48;14.25;;;;;;;;;;5039561;28;20057;-76
2023/12/04 06:29:14;;;;;;;18.75;13.27;;;;;;;;;;5056200;28;20096;-76
2023/12/04 06:31:41;;;;;;;20.67;13.95;;;;;;;;;;5055900;28;20060;-76
2023/12/04 06:34:07;;;;;;;21.30;14.23;;;;;;;;;;5055872;28;20091;-76
2023/12/04 06:36:35;;;;;;;22.58;14.63;;;;;;;;;;5055660;28;20048;-76
2023/12/04 06:39:04;;;;;;;21.65;14.43;;;;;;;;;;5055455;28;20478;-76
2023/12/04 06:41:30;;;;;;;20.80;14.50;;;;;;;;;;5055730;28;20052;-76
2023/12/04 06:43:57;;;;;;;21.30;13.95;;;;;;;;;;5055528;28;20041;-76
2023/12/04 06:46:24;;;;;;;19.60;13.43;;;;;;;;;;5055987;28;20049;-76
2023/12/04 06:48:54;;;;;;;20.42;13.60;;;;;;;;;;5055261;28;20053;-76
2023/12/04 06:51:20;;;;;;;20.25;13.38;;;;;;;;;;5054761;28;20048;-76
2023/12/04 06:53:46;;;;;;;17.88;12.95;;;;;;;;;;5055520;28;20233;-76
2023/12/04 06:56:12;;;;;;;18.52;13.63;;;;;;;;;;5055404;28;20059;-77
2023/12/04 06:58:39;;;;;;;21.80;14.15;;;;;;;;;;5038928;28;20052;-76
2023/12/04 07:01:05;;;;;;;17.73;12.48;;;;;;;;;;5039085;28;20393;-76
2023/12/04 07:03:31;;;;;;;17.38;12.40;;;;;;;;;;5056478;28;20049;-75
2023/12/04 07:05:57;;;;;;;21.02;14.15;;;;;;;;;;5054938;28;20080;-77
2023/12/04 07:08:23;;;;;;;18.38;12.85;;;;;;;;;;5038659;28;20048;-76
2023/12/04 07:10:49;;;;;;;20.27;13.63;;;;;;;;;;5054753;28;20045;-77
2023/12/04 07:13:16;;;;;;;17.40;11.95;;;;;;;;;;5054724;28;20053;-77
2023/12/04 07:15:42;;;;;;;16.20;11.73;;;;;;;;;;5055344;28;20102;-76
2023/12/04 07:18:08;;;;;;;18.92;12.00;;;;;;;;;;5038082;28;20080;-76
2023/12/04 07:20:34;;;;;;;17.25;11.63;;;;;;;;;;5056128;28;20414;-76
2023/12/04 07:23:00;;;;;;;18.10;13.13;;;;;;;;;;5054938;28;20056;-76
2023/12/04 07:25:26;;;;;;;16.63;12.02;;;;;;;;;;5055183;28;20094;-78
2023/12/04 07:27:52;;;;;;;19.38;12.57;;;;;;;;;;5054466;28;20053;-76
2023/12/04 07:30:20;;;;;;;17.58;12.48;;;;;;;;;;5054571;28;20049;-75
2023/12/04 07:32:46;;;;;;;18.52;11.95;;;;;;;;;;5054192;28;20057;-77
2023/12/04 07:35:12;;;;;;;10.88;7.68;;;;;;;;;;5054661;28;20397;-76
2023/12/04 07:37:38;;;;;;;16.63;11.38;;;;;;;;;;5054488;28;20389;-76
2023/12/04 07:40:05;;;;;;;17.95;12.18;;;;;;;;;;5055370;28;20155;-76
2023/12/04 07:42:32;;;;;;;14.63;9.43;;;;;;;;;;5055259;28;20489;-77
2023/12/04 07:44:58;;;;;;;16.42;11.43;;;;;;;;;;5038024;28;20131;-76
2023/12/04 07:47:24;;;;;;;15.90;12.20;;;;;;;;;;5055097;28;20041;-76
2023/12/04 07:49:50;;;;;;;14.88;10.85;;;;;;;;;;5038089;28;20060;-76
2023/12/04 07:52:17;;;;;;;14.68;11.23;;;;;;;;;;5053745;28;20067;-75
2023/12/04 07:54:43;;;;;;;16.00;11.75;;;;;;;;;;5054383;28;20128;-76
2023/12/04 07:57:09;;;;;;;14.32;8.93;;;;;;;;;;5054351;28;20132;-75
2023/12/04 07:59:36;;;;;;;17.77;12.35;;;;;;;;;;5054226;28;20094;-76
2023/12/04 08:02:02;;;;;;;17.25;12.45;;;;;;;;;;5054166;28;20107;-76
2023/12/04 08:04:28;;;;;;;16.15;11.65;;;;;;;;;;5054222;28;20087;-76
2023/12/04 08:06:54;;;;;;;16.50;12.20;;;;;;;;;;5055621;28;20465;-76
2023/12/04 08:09:20;;;;;;;16.13;11.32;;;;;;;;;;5054064;28;20044;-76
2023/12/04 08:11:47;;;;;;;18.13;11.10;;;;;;;;;;5021019;28;20186;-76
2023/12/04 08:14:13;;;;;;;15.55;11.10;;;;;;;;;;5053839;28;20048;-76
2023/12/04 08:16:39;;;;;;;16.83;11.70;;;;;;;;;;5053778;28;20045;-76
2023/12/04 08:19:05;;;;;;;17.23;11.05;;;;;;;;;;5037289;28;20049;-76
2023/12/04 08:21:32;;;;;;;14.70;10.68;;;;;;;;;;5054624;28;20041;-76
2023/12/04 08:23:58;;;;;;;15.25;10.85;;;;;;;;;;5053699;28;20052;-76
2023/12/04 08:26:24;;;;;;;12.73;9.77;;;;;;;;;;5054535;28;20052;-76
2023/12/04 08:28:51;;;;;;;14.98;10.00;;;;;;;;;;5054622;28;20091;-76
2023/12/04 08:31:17;;;;;;;13.80;9.95;;;;;;;;;;5054659;28;20093;-76
2023/12/04 08:33:43;;;;;;;12.38;9.85;;;;;;;;;;5053561;28;20041;-76
2023/12/04 08:36:11;;;;;;;13.98;9.02;;;;;;;;;;5054399;28;20063;-77
2023/12/04 08:38:37;;;;;;;13.88;10.20;;;;;;;;;;5053488;28;20056;-76
2023/12/04 08:41:04;;;;;;;11.38;8.10;;;;;;;;;;5053468;28;20056;-77
2023/12/04 08:43:30;;;;;;;14.32;9.50;;;;;;;;;;5053428;28;20045;-76
2023/12/04 08:45:56;;;;;;;13.52;9.48;;;;;;;;;;5053263;28;20040;-76
2023/12/04 08:48:23;;;;;;;10.48;7.43;;;;;;;;;;5054298;28;20048;-76
2023/12/04 08:50:49;;;;;;;13.32;9.25;;;;;;;;;;5052967;28;20064;-76
2023/12/04 08:53:15;;;;;;;11.90;8.95;;;;;;;;;;5053303;28;20052;-76
2023/12/04 08:55:41;;;;;;;12.15;9.20;;;;;;;;;;5054020;28;20431;-76
2023/12/04 08:58:07;;;;;;;13.00;8.88;;;;;;;;;;5053236;28;20045;-76
2023/12/04 09:00:35;;;;;;;12.48;9.25;;;;;;;;;;5036705;28;20425;-76
2023/12/04 09:03:02;;;;;;;14.80;9.60;;;;;;;;;;5053422;28;20056;-76
2023/12/04 09:05:28;;;;;;;11.88;9.10;;;;;;;;;;5052810;28;20095;-76
2023/12/04 09:07:54;;;;;;;12.50;9.90;;;;;;;;;;5053050;28;20037;-75
2023/12/04 09:10:20;;;;;;;12.57;9.23;;;;;;;;;;5053322;28;20045;-76
2023/12/04 09:12:46;;;;;;;11.40;8.05;;;;;;;;;;5052951;28;20045;-76
2023/12/04 09:15:13;;;;;;;11.27;8.20;;;;;;;;;;5053850;28;20041;-76
2023/12/04 09:17:39;;;;;;;10.98;7.97;;;;;;;;;;5053749;28;20048;-76
2023/12/04 09:20:05;;;;;;;13.13;8.60;;;;;;;;;;5052893;28;20041;-76
2023/12/04 09:22:32;;;;;;;12.13;8.18;;;;;;;;;;5036170;28;20048;-75
2023/12/04 09:24:58;;;;;;;11.00;7.97;;;;;;;;;;5052790;28;20124;-75
2023/12/04 09:27:24;;;;;;;11.48;8.05;;;;;;;;;;5052720;28;20099;-76
2023/12/04 09:29:50;;;;;;;11.68;9.07;;;;;;;;;;5053547;28;20037;-76
2023/12/04 09:32:16;;;;;;;11.30;8.25;;;;;;;;;;5052718;28;20052;-76
2023/12/04 09:34:42;;;;;;;13.18;9.90;;;;;;;;;;5052740;28;20455;-76
2023/12/04 09:37:08;;;;;;;12.90;9.35;;;;;;;;;;5053511;28;20041;-76
2023/12/04 09:39:34;;;;;;;11.43;8.80;;;;;;;;;;5036899;28;20059;-76
2023/12/04 09:42:00;;;;;;;10.88;8.60;;;;;;;;;;5054195;28;20049;-76
2023/12/04 09:44:29;;;;;;;13.95;8.52;;;;;;;;;;5053506;28;20049;-76
2023/12/04 09:46:55;;;;;;;9.82;7.90;;;;;;;;;;5052572;28;20053;-76
2023/12/04 09:49:22;;;;;;;10.60;7.93;;;;;;;;;;5036206;28;20049;-76
2023/12/04 09:51:48;;;;;;;10.07;8.10;;;;;;;;;;5052150;28;20408;-76
2023/12/04 09:54:19;;;;;;;9.07;7.35;;;;;;;;;;5036162;28;20374;-76
2023/12/04 09:56:45;;;;;;;11.63;7.82;;;;;;;;;;5054034;28;20098;-77
2023/12/04 09:59:13;;;;;;;10.52;8.35;;;;;;;;;;5057287;28;20037;-76
2023/12/04 10:01:40;;;;;;;7.22;6.10;;;;;;;;;;5057489;28;20144;-76
2023/12/04 10:04:07;;;;;;;9.38;7.60;;;;;;;;;;5040591;28;20373;-76
2023/12/04 10:06:33;;;;;;;9.45;7.30;;;;;;;;;;5056449;28;20610;-76
2023/12/04 10:08:59;;;;;;;11.57;8.27;;;;;;;;;;5039793;28;20041;-76
2023/12/04 10:11:26;;;;;;;9.73;7.50;;;;;;;;;;5056345;28;20052;-76
2023/12/04 10:13:53;;;;;;;10.20;8.30;;;;;;;;;;5057853;28;20056;-76
2023/12/04 10:16:35;;;;;;;11.20;7.88;;;;;;;;;;5057757;28;20091;-76
2023/12/04 10:19:04;;;;;;;;;;;;;;;;;;5057579;28;20045;-75
2023/12/04 10:21:34;;;;;;;8.80;6.78;;;;;;;;;;5057090;28;19965;-76
2023/12/04 10:24:00;;;;;;;9.40;7.38;;;;;;;;;;5057556;28;20049;-77
2023/12/04 10:26:26;;;;;;;9.63;7.00;;;;;;;;;;5039182;28;20056;-76
2023/12/04 10:29:00;;;;;;;8.15;6.85;;;;;;;;;;5056385;28;20059;-77
2023/12/04 10:31:26;;;;;;;6.25;4.22;;;;;;;;;;5039347;28;20136;-76
2023/12/04 10:33:52;;;;;;;7.72;6.57;;;;;;;;;;5056994;28;20057;-77
2023/12/04 10:36:19;;;;;;;10.45;7.68;;;;;;;;;;5055860;28;20141;-77
2023/12/04 10:38:45;;;;;;;8.82;7.13;;;;;;;;;;5055815;28;20048;-78
2023/12/04 10:41:14;;;;;;;7.80;6.97;;;;;;;;;;5055539;28;20085;-77
2023/12/04 10:43:49;;;;;;;11.05;6.90;;;;;;;;;;5056541;28;20045;-78
2023/12/04 10:46:18;;;;;;;9.20;7.10;;;;;;;;;;5055407;28;20111;-77
2023/12/04 10:48:45;;;;;;;9.00;6.82;;;;;;;;;;5039239;28;20053;-78
2023/12/04 10:51:13;;;;;;;8.55;6.80;;;;;;;;;;5055352;28;20053;-78
2023/12/04 10:53:42;;;;;;;4.35;3.75;;;;;;;;;;5055542;28;20128;-78
2023/12/04 10:56:17;;;;;;;7.43;5.65;;;;;;;;;;5056304;28;20048;-78
2023/12/04 10:58:44;;;;;;;7.88;6.63;;;;;;;;;;5039717;28;20057;-78
2023/12/04 11:01:12;;;;;;;8.45;6.13;;;;;;;;;;5055398;28;20110;-78
2023/12/04 11:03:44;;;;;;;6.88;4.78;;;;;;;;;;5055609;28;20045;-78
2023/12/04 11:06:15;;;;;;;8.65;7.18;;;;;;;;;;5055896;28;20128;-78
2023/12/04 11:08:42;;;;;;;7.28;6.50;;;;;;;;;;5055474;28;20045;-78
2023/12/04 11:11:16;;;;;;;8.10;6.43;;;;;;;;;;5055180;28;20088;-78
2023/12/04 11:13:43;;;;;;;8.67;6.53;;;;;;;;;;5055193;28;20099;-78
2023/12/04 11:16:12;;;;;;;8.02;6.55;;;;;;;;;;5056594;28;20279;-77
2023/12/04 11:18:39;;;;;;;7.13;6.28;;;;;;;;;;5055382;28;20091;-77
2023/12/04 11:21:09;;;;;;;7.47;6.78;;;;;;;;;;5055225;28;20052;-78
2023/12/04 11:23:36;;;;;;;7.10;6.38;;;;;;;;;;5056003;28;20055;-78
2023/12/04 11:26:03;;;;;;;7.57;5.82;;;;;;;;;;5054697;28;20128;-78
2023/12/04 11:28:30;;;;;;;7.30;6.47;;;;;;;;;;5056681;28;20057;-78
2023/12/04 11:30:57;;;;;;;7.47;5.90;;;;;;;;;;5054670;28;20137;-78
2023/12/04 11:33:24;;;;;;;7.50;6.40;;;;;;;;;;5038282;28;20052;-78
2023/12/04 11:35:51;;;;;;;7.65;6.85;;;;;;;;;;5055773;28;20056;-77
2023/12/04 11:38:17;;;;;;;7.88;6.82;;;;;;;;;;5055664;28;20053;-79
2023/12/04 11:40:43;;;;;;;8.02;5.80;;;;;;;;;;5054909;28;20071;-79
2023/12/04 11:43:23;;;;;;;8.75;6.55;;;;;;;;;;5038308;28;20057;-79
2023/12/04 11:45:49;;;;;;;8.23;6.30;;;;;;;;;;5054613;28;20060;-79
2023/12/04 11:48:15;;;;;;;7.13;6.43;;;;;;;;;;5055450;28;20045;-78
2023/12/04 11:50:44;;;;;;;7.43;6.63;;;;;;;;;;5053997;28;20061;-79
2023/12/04 11:53:14;;;;;;;8.88;6.65;;;;;;;;;;5054671;28;20099;-79
2023/12/04 11:55:43;;;;;;;8.15;6.55;;;;;;;;;;5054391;28;20045;-79
2023/12/04 11:58:10;;;;;;;7.35;6.05;;;;;;;;;;5054335;28;20055;-78
2023/12/04 12:00:37;;;;;;;7.47;6.18;;;;;;;;;;5055346;28;20099;-79
2023/12/04 12:03:09;;;;;;;8.25;6.50;;;;;;;;;;5054221;28;20061;-79
2023/12/04 12:05:36;;;;;;;8.48;6.30;;;;;;;;;;5053917;28;20408;-80
2023/12/04 12:08:03;;;;;;;8.00;6.75;;;;;;;;;;5054410;28;20508;-79
2023/12/04 12:10:29;;;;;;;8.73;5.82;;;;;;;;;;5055074;28;20056;-79
2023/12/04 12:12:56;;;;;;;8.10;6.55;;;;;;;;;;5054061;28;20045;-79
2023/12/04 12:15:22;;;;;;;9.38;6.30;;;;;;;;;;5038195;28;20156;-79
2023/12/04 12:17:50;;;;;;;7.88;6.82;;;;;;;;;;5037648;28;20053;-79
2023/12/04 12:20:17;;;;;;;7.88;6.80;;;;;;;;;;5037227;28;20076;-79
2023/12/04 12:22:46;;;;;;;10.45;7.28;;;;;;;;;;5037336;28;20493;-79
2023/12/04 12:25:12;;;;;;;7.80;6.65;;;;;;;;;;5053674;28;20087;-78
2023/12/04 12:27:39;;;;;;;6.63;5.93;;;;;;;;;;5036915;28;20503;-79
2023/12/04 12:30:06;;;;;;;7.78;6.97;;;;;;;;;;5037100;28;20045;-78
2023/12/04 12:32:32;;;;;;;11.70;7.22;;;;;;;;;;5054715;28;20053;-78
2023/12/04 12:34:58;;;;;;;10.55;7.75;;;;;;;;;;5037316;28;20049;-78
2023/12/04 12:37:24;;;;;;;6.85;4.63;;;;;;;;;;5053613;28;20118;-78
2023/12/04 12:39:51;;;;;;;8.73;7.05;;;;;;;;;;5036657;28;20048;-78
2023/12/04 12:42:25;;;;;;;8.15;6.70;;;;;;;;;;5132398;27;20456;-78
2023/12/04 12:44:52;;;;;;;8.85;6.28;;;;;;;;;;5114151;28;20043;-78
2023/12/04 12:47:18;;;;;;;9.15;7.00;;;;;;;;;;5113785;28;20150;-77
2023/12/04 12:49:44;;;;;;;10.75;7.88;;;;;;;;;;5113912;28;20050;-78
2023/12/04 12:52:11;;;;;;;8.00;7.05;;;;;;;;;;5113503;28;20445;-78
2023/12/04 12:54:38;;;;;;;7.63;6.80;;;;;;;;;;5097512;28;20104;-78
2023/12/04 12:57:04;;;;;;;10.52;7.07;;;;;;;;;;5113795;28;20049;-78
2023/12/04 12:59:30;;;;;;;8.75;6.57;;;;;;;;;;5113763;28;20432;-78
2023/12/04 13:02:03;;;;;;;9.93;7.10;;;;;;;;;;5113517;28;20162;-78
2023/12/04 13:04:38;;;;;;;9.45;7.82;;;;;;;;;;5097125;28;20047;-78
2023/12/04 13:07:08;;;;;;;10.23;7.28;;;;;;;;;;5113586;28;20080;-78
2023/12/04 13:09:38;;;;;;;10.90;7.72;;;;;;;;;;5096340;28;20142;-78
2023/12/04 13:12:05;;;;;;;9.55;7.50;;;;;;;;;;5113765;28;20429;-77
2023/12/04 13:14:31;;;;;;;10.23;7.75;;;;;;;;;;5113279;28;20058;-77
2023/12/04 13:16:58;;;;;;;9.23;7.53;;;;;;;;;;5113497;28;20077;-79
2023/12/04 13:19:24;;;;;;;8.68;7.72;;;;;;;;;;5113504;28;20062;-78
2023/12/04 13:21:50;;;;;;;9.00;6.85;;;;;;;;;;5112750;28;20390;-78
2023/12/04 13:24:17;;;;;;;8.70;7.78;;;;;;;;;;5113458;28;20141;-78
2023/12/04 13:26:44;;;;;;;9.68;7.75;;;;;;;;;;5113300;28;20047;-78
2023/12/04 13:29:10;;;;;;;8.35;7.15;;;;;;;;;;5112063;28;20054;-80
2023/12/04 13:31:37;;;;;;;8.80;7.63;;;;;;;;;;5112938;28;20090;-78
2023/12/04 13:34:06;;;;;;;9.70;6.97;;;;;;;;;;5130663;28;20043;-79
2023/12/04 13:36:32;;;;;;;9.90;7.78;;;;;;;;;;5112015;28;20059;-79
2023/12/04 13:38:58;;;;;;;9.35;7.40;;;;;;;;;;5111912;28;20085;-79
2023/12/04 13:44:14;;;;;;;8.27;7.45;;;;;;;;;;5096790;28;20149;-79
2023/12/04 13:46:40;;;;;;;9.13;7.40;;;;;;;;;;5111964;28;20384;-79
2023/12/04 13:49:06;;;;;;;9.52;7.43;;;;;;;;;;5092152;28;20039;-79
2023/12/04 13:51:32;;;;;;;9.85;8.30;;;;;;;;;;5110911;28;20096;-79
2023/12/04 13:54:09;;;;;;;9.18;7.70;;;;;;;;;;5080760;28;20475;-79
2023/12/04 13:56:53;;;;;;;9.57;7.05;;;;;;;;;;5081400;28;20046;-79
2023/12/04 13:59:23;;;;;;;8.23;7.22;;;;;;;;;;5098208;28;20047;-79
2023/12/04 14:01:51;;;;;;;7.78;7.07;;;;;;;;;;5080992;28;20066;-79
2023/12/04 14:04:17;;;;;;;8.85;7.88;;;;;;;;;;5097850;28;20047;-80
2023/12/04 14:06:44;;;;;;;12.10;6.82;;;;;;;;;;5098078;28;20039;-79
2023/12/04 14:09:14;;;;;;;11.25;8.00;;;;;;;;;;5098322;28;20074;-79
2023/12/04 14:11:40;;;;;;;9.75;8.13;;;;;;;;;;5080769;28;20475;-78
2023/12/04 14:14:06;;;;;;;9.18;7.65;;;;;;;;;;5064389;28;20043;-79
2023/12/04 14:16:33;;;;;;;10.40;7.95;;;;;;;;;;5097654;28;20510;-78
2023/12/04 14:18:59;;;;;;;9.57;7.38;;;;;;;;;;5080942;28;20039;-78
2023/12/04 14:21:25;;;;;;;8.77;7.88;;;;;;;;;;5097228;28;20040;-78
2023/12/04 14:23:51;;;;;;;8.25;7.45;;;;;;;;;;5097021;28;20035;-78
2023/12/04 14:26:17;;;;;;;10.93;7.22;;;;;;;;;;5095807;28;20043;-78